sensor_id;sensor_type;location;lat;lon;timestamp;temperature;humidity
4749;DHT22;2388;53.582;9.962;2023-04-30T00:02:07;8.00;99.90
4749;DHT22;2388;53.582;9.962;2023-04-30T00:04:32;7.90;99.90
4749;DHT22;2388;53.582;9.962;2023-04-30T00:06:58;7.80;99.90
4749;DHT22;2388;53.582;9.962;2023-04-30T00:09:23;7.80;99.90
4749;DHT22;2388;53.582;9.962;2023-04-30T00:11:49;7.80;99.90
4749;DHT22;2388;53.582;9.962;2023-04-30T00:14:15;7.80;99.90
4749;DHT22;2388;53.582;9.962;2023-04-30T00:16:40;7.80;99.90
4749;DHT22;2388;53.582;9.962;2023-04-30T00:19:06;7.70;99.90
4749;DHT22;2388;53.582;9.962;2023-04-30T00:21:32;7.70;99.90
4749;DHT22;2388;53.582;9.962;2023-04-30T00:23:58;7.70;99.90
4749;DHT22;2388;53.582;9.962;2023-04-30T00:26:26;7.70;99.90
4749;DHT22;2388;53.582;9.962;2023-04-30T00:28:52;7.70;99.90
4749;DHT22;2388;53.582;9.962;2023-04-30T00:31:17;7.70;99.90
4749;DHT22;2388;53.582;9.962;2023-04-30T00:33:43;7.70;99.90
4749;DHT22;2388;53.582;9.962;2023-04-30T00:36:09;7.70;99.90
4749;DHT22;2388;53.582;9.962;2023-04-30T00:38:37;7.70;99.90
4749;DHT22;2388;53.582;9.962;2023-04-30T00:41:04;7.70;99.90
4749;DHT22;2388;53.582;9.962;2023-04-30T00:43:30;7.60;99.90
4749;DHT22;2388;53.582;9.962;2023-04-30T00:45:56;7.60;99.90
4749;DHT22;2388;53.582;9.962;2023-04-30T00:48:23;7.60;99.90
4749;DHT22;2388;53.582;9.962;2023-04-30T00:50:48;7.50;99.90
4749;DHT22;2388;53.582;9.962;2023-04-30T00:53:14;7.50;99.90
4749;DHT22;2388;53.582;9.962;2023-04-30T00:55:41;7.50;99.90
4749;DHT22;2388;53.582;9.962;2023-04-30T00:58:08;7.50;99.90
4749;DHT22;2388;53.582;9.962;2023-04-30T01:00:33;7.50;99.90
4749;DHT22;2388;53.582;9.962;2023-04-30T01:02:59;7.50;99.90
4749;DHT22;2388;53.582;9.962;2023-04-30T01:05:25;7.40;99.90
4749;DHT22;2388;53.582;9.962;2023-04-30T01:07:52;7.40;99.90
4749;DHT22;2388;53.582;9.962;2023-04-30T01:10:18;7.40;99.90
4749;DHT22;2388;53.582;9.962;2023-04-30T01:13:08;7.40;99.90
4749;DHT22;2388;53.582;9.962;2023-04-30T01:15:53;7.40;99.90
4749;DHT22;2388;53.582;9.962;2023-04-30T01:18:28;7.40;99.90
4749;DHT22;2388;53.582;9.962;2023-04-30T01:21:03;7.30;99.90
4749;DHT22;2388;53.582;9.962;2023-04-30T01:27:05;7.30;99.90
4749;DHT22;2388;53.582;9.962;2023-04-30T01:29:32;7.30;99.90
4749;DHT22;2388;53.582;9.962;2023-04-30T01:31:58;7.30;99.90
4749;DHT22;2388;53.582;9.962;2023-04-30T01:34:24;7.30;99.90
4749;DHT22;2388;53.582;9.962;2023-04-30T01:37:41;7.20;99.90
4749;DHT22;2388;53.582;9.962;2023-04-30T01:39:54;7.20;99.90
4749;DHT22;2388;53.582;9.962;2023-04-30T01:42:29;7.20;99.90
4749;DHT22;2388;53.582;9.962;2023-04-30T01:51:00;7.10;99.90
4749;DHT22;2388;53.582;9.962;2023-04-30T01:53:32;7.10;99.90
4749;DHT22;2388;53.582;9.962;2023-04-30T01:56:05;7.10;99.90
4749;DHT22;2388;53.582;9.962;2023-04-30T01:58:34;7.00;99.90
4749;DHT22;2388;53.582;9.962;2023-04-30T02:01:02;7.00;99.90
4749;DHT22;2388;53.582;9.962;2023-04-30T02:03:27;7.00;99.90
4749;DHT22;2388;53.582;9.962;2023-04-30T02:05:54;7.00;99.90
4749;DHT22;2388;53.582;9.962;2023-04-30T02:08:19;7.00;99.90
4749;DHT22;2388;53.582;9.962;2023-04-30T02:10:45;7.00;99.90
4749;DHT22;2388;53.582;9.962;2023-04-30T02:13:11;7.00;99.90
4749;DHT22;2388;53.582;9.962;2023-04-30T02:15:36;7.00;99.90
4749;DHT22;2388;53.582;9.962;2023-04-30T02:18:02;7.00;99.90
4749;DHT22;2388;53.582;9.962;2023-04-30T02:20:28;7.00;99.90
4749;DHT22;2388;53.582;9.962;2023-04-30T02:22:53;7.00;99.90
4749;DHT22;2388;53.582;9.962;2023-04-30T02:25:19;7.00;99.90
4749;DHT22;2388;53.582;9.962;2023-04-30T02:27:44;6.90;99.90
4749;DHT22;2388;53.582;9.962;2023-04-30T02:30:10;6.90;99.90
4749;DHT22;2388;53.582;9.962;2023-04-30T02:32:36;6.90;99.90
4749;DHT22;2388;53.582;9.962;2023-04-30T02:35:01;6.90;99.90
4749;DHT22;2388;53.582;9.962;2023-04-30T02:37:27;6.90;99.90
4749;DHT22;2388;53.582;9.962;2023-04-30T02:39:52;6.90;99.90
4749;DHT22;2388;53.582;9.962;2023-04-30T02:42:18;6.90;99.90
4749;DHT22;2388;53.582;9.962;2023-04-30T02:44:44;6.90;99.90
4749;DHT22;2388;53.582;9.962;2023-04-30T02:47:09;7.00;99.90
4749;DHT22;2388;53.582;9.962;2023-04-30T02:49:35;6.90;99.90
4749;DHT22;2388;53.582;9.962;2023-04-30T02:52:00;7.00;99.90
4749;DHT22;2388;53.582;9.962;2023-04-30T02:54:26;6.90;99.90
4749;DHT22;2388;53.582;9.962;2023-04-30T02:56:52;6.90;99.90
4749;DHT22;2388;53.582;9.962;2023-04-30T02:59:18;6.80;99.90
4749;DHT22;2388;53.582;9.962;2023-04-30T03:01:43;6.80;99.90
4749;DHT22;2388;53.582;9.962;2023-04-30T03:04:09;6.80;99.90
4749;DHT22;2388;53.582;9.962;2023-04-30T03:06:34;6.80;99.90
4749;DHT22;2388;53.582;9.962;2023-04-30T03:09:00;6.80;99.90
4749;DHT22;2388;53.582;9.962;2023-04-30T03:11:26;6.80;99.90
4749;DHT22;2388;53.582;9.962;2023-04-30T03:13:51;6.80;99.90
4749;DHT22;2388;53.582;9.962;2023-04-30T03:16:18;6.80;99.90
4749;DHT22;2388;53.582;9.962;2023-04-30T03:18:44;6.80;99.90
4749;DHT22;2388;53.582;9.962;2023-04-30T03:21:10;6.80;99.90
4749;DHT22;2388;53.582;9.962;2023-04-30T03:23:36;6.80;99.90
4749;DHT22;2388;53.582;9.962;2023-04-30T03:26:01;6.80;99.90
4749;DHT22;2388;53.582;9.962;2023-04-30T03:28:27;6.80;99.90
4749;DHT22;2388;53.582;9.962;2023-04-30T03:30:52;6.80;99.90
4749;DHT22;2388;53.582;9.962;2023-04-30T03:33:17;6.80;99.90
4749;DHT22;2388;53.582;9.962;2023-04-30T03:35:43;6.80;99.90
4749;DHT22;2388;53.582;9.962;2023-04-30T03:38:09;6.80;99.90
4749;DHT22;2388;53.582;9.962;2023-04-30T03:40:34;6.80;99.90
4749;DHT22;2388;53.582;9.962;2023-04-30T03:43:00;6.80;99.90
4749;DHT22;2388;53.582;9.962;2023-04-30T03:45:25;6.70;99.90
4749;DHT22;2388;53.582;9.962;2023-04-30T03:47:51;6.80;99.90
4749;DHT22;2388;53.582;9.962;2023-04-30T03:50:17;6.80;99.90
4749;DHT22;2388;53.582;9.962;2023-04-30T03:52:43;6.70;99.90
4749;DHT22;2388;53.582;9.962;2023-04-30T03:55:09;6.70;99.90
4749;DHT22;2388;53.582;9.962;2023-04-30T03:57:35;6.80;99.90
4749;DHT22;2388;53.582;9.962;2023-04-30T04:00:01;6.70;99.90
4749;DHT22;2388;53.582;9.962;2023-04-30T04:02:32;6.80;99.90
4749;DHT22;2388;53.582;9.962;2023-04-30T04:04:57;6.70;99.90
4749;DHT22;2388;53.582;9.962;2023-04-30T04:07:23;6.80;99.90
4749;DHT22;2388;53.582;9.962;2023-04-30T04:09:48;6.70;99.90
4749;DHT22;2388;53.582;9.962;2023-04-30T04:12:14;6.70;99.90
4749;DHT22;2388;53.582;9.962;2023-04-30T04:14:39;6.70;99.90
4749;DHT22;2388;53.582;9.962;2023-04-30T04:17:05;6.70;99.90
4749;DHT22;2388;53.582;9.962;2023-04-30T04:19:30;6.70;99.90
4749;DHT22;2388;53.582;9.962;2023-04-30T04:21:56;6.70;99.90
4749;DHT22;2388;53.582;9.962;2023-04-30T04:24:24;6.70;99.90
4749;DHT22;2388;53.582;9.962;2023-04-30T04:26:49;6.70;99.90
4749;DHT22;2388;53.582;9.962;2023-04-30T04:29:15;6.80;99.90
4749;DHT22;2388;53.582;9.962;2023-04-30T04:31:41;6.80;99.90
4749;DHT22;2388;53.582;9.962;2023-04-30T04:34:07;6.80;99.90
4749;DHT22;2388;53.582;9.962;2023-04-30T04:36:32;6.80;99.90
4749;DHT22;2388;53.582;9.962;2023-04-30T04:38:59;6.80;99.90
4749;DHT22;2388;53.582;9.962;2023-04-30T04:41:29;6.70;99.90
4749;DHT22;2388;53.582;9.962;2023-04-30T04:43:54;6.70;99.90
4749;DHT22;2388;53.582;9.962;2023-04-30T04:46:21;6.70;99.90
4749;DHT22;2388;53.582;9.962;2023-04-30T04:48:47;6.70;99.90
4749;DHT22;2388;53.582;9.962;2023-04-30T04:51:13;6.80;99.90
4749;DHT22;2388;53.582;9.962;2023-04-30T04:53:38;6.80;99.90
4749;DHT22;2388;53.582;9.962;2023-04-30T04:56:05;6.80;99.90
4749;DHT22;2388;53.582;9.962;2023-04-30T04:58:31;6.80;99.90
4749;DHT22;2388;53.582;9.962;2023-04-30T05:00:57;6.80;99.90
4749;DHT22;2388;53.582;9.962;2023-04-30T05:03:24;6.80;99.90
4749;DHT22;2388;53.582;9.962;2023-04-30T05:05:50;6.80;99.90
4749;DHT22;2388;53.582;9.962;2023-04-30T05:08:15;6.90;99.90
4749;DHT22;2388;53.582;9.962;2023-04-30T05:10:41;6.90;99.90
4749;DHT22;2388;53.582;9.962;2023-04-30T05:13:07;6.90;99.90
4749;DHT22;2388;53.582;9.962;2023-04-30T05:15:32;7.00;99.90
4749;DHT22;2388;53.582;9.962;2023-04-30T05:17:57;7.00;99.90
4749;DHT22;2388;53.582;9.962;2023-04-30T05:20:23;7.00;99.90
4749;DHT22;2388;53.582;9.962;2023-04-30T05:22:49;7.10;99.90
4749;DHT22;2388;53.582;9.962;2023-04-30T05:25:14;7.10;99.90
4749;DHT22;2388;53.582;9.962;2023-04-30T05:27:40;7.10;99.90
4749;DHT22;2388;53.582;9.962;2023-04-30T05:30:06;7.10;99.90
4749;DHT22;2388;53.582;9.962;2023-04-30T05:32:31;7.20;99.90
4749;DHT22;2388;53.582;9.962;2023-04-30T05:34:57;7.20;99.90
4749;DHT22;2388;53.582;9.962;2023-04-30T05:37:23;7.30;99.90
4749;DHT22;2388;53.582;9.962;2023-04-30T05:39:48;7.30;99.90
4749;DHT22;2388;53.582;9.962;2023-04-30T05:42:14;7.30;99.90
4749;DHT22;2388;53.582;9.962;2023-04-30T05:44:40;7.40;99.90
4749;DHT22;2388;53.582;9.962;2023-04-30T05:47:05;7.50;99.90
4749;DHT22;2388;53.582;9.962;2023-04-30T05:49:31;7.60;99.90
4749;DHT22;2388;53.582;9.962;2023-04-30T05:51:57;7.70;99.90
4749;DHT22;2388;53.582;9.962;2023-04-30T05:54:22;7.70;99.90
4749;DHT22;2388;53.582;9.962;2023-04-30T05:56:48;7.70;99.90
4749;DHT22;2388;53.582;9.962;2023-04-30T05:59:13;7.70;99.90
4749;DHT22;2388;53.582;9.962;2023-04-30T06:01:39;7.80;99.90
4749;DHT22;2388;53.582;9.962;2023-04-30T06:04:04;7.80;99.90
4749;DHT22;2388;53.582;9.962;2023-04-30T06:06:30;7.80;99.90
4749;DHT22;2388;53.582;9.962;2023-04-30T06:08:58;7.80;99.90
4749;DHT22;2388;53.582;9.962;2023-04-30T06:11:24;7.80;99.90
4749;DHT22;2388;53.582;9.962;2023-04-30T06:13:50;7.90;99.90
4749;DHT22;2388;53.582;9.962;2023-04-30T06:16:15;7.90;99.90
4749;DHT22;2388;53.582;9.962;2023-04-30T06:18:41;7.90;99.90
4749;DHT22;2388;53.582;9.962;2023-04-30T06:21:06;8.00;99.90
4749;DHT22;2388;53.582;9.962;2023-04-30T06:23:32;8.00;99.90
4749;DHT22;2388;53.582;9.962;2023-04-30T06:25:57;8.00;99.90
4749;DHT22;2388;53.582;9.962;2023-04-30T06:28:23;8.10;99.90
4749;DHT22;2388;53.582;9.962;2023-04-30T06:30:49;8.20;99.90
4749;DHT22;2388;53.582;9.962;2023-04-30T06:33:16;8.20;99.90
4749;DHT22;2388;53.582;9.962;2023-04-30T06:35:41;8.20;99.90
4749;DHT22;2388;53.582;9.962;2023-04-30T06:38:07;8.20;99.90
4749;DHT22;2388;53.582;9.962;2023-04-30T06:40:33;8.30;99.90
4749;DHT22;2388;53.582;9.962;2023-04-30T06:42:58;8.20;99.90
4749;DHT22;2388;53.582;9.962;2023-04-30T06:45:24;8.30;99.90
4749;DHT22;2388;53.582;9.962;2023-04-30T06:47:49;8.20;99.90
4749;DHT22;2388;53.582;9.962;2023-04-30T06:50:16;8.30;99.90
4749;DHT22;2388;53.582;9.962;2023-04-30T06:52:41;8.30;99.90
4749;DHT22;2388;53.582;9.962;2023-04-30T06:55:07;8.30;99.90
4749;DHT22;2388;53.582;9.962;2023-04-30T06:57:33;8.30;99.90
4749;DHT22;2388;53.582;9.962;2023-04-30T07:00:02;8.40;99.90
4749;DHT22;2388;53.582;9.962;2023-04-30T07:02:28;8.40;99.90
4749;DHT22;2388;53.582;9.962;2023-04-30T07:04:53;8.50;99.90
4749;DHT22;2388;53.582;9.962;2023-04-30T07:07:19;8.50;99.90
4749;DHT22;2388;53.582;9.962;2023-04-30T07:09:45;8.60;99.90
4749;DHT22;2388;53.582;9.962;2023-04-30T07:12:10;8.60;99.90
4749;DHT22;2388;53.582;9.962;2023-04-30T07:14:37;8.60;99.90
4749;DHT22;2388;53.582;9.962;2023-04-30T07:17:03;8.60;99.90
4749;DHT22;2388;53.582;9.962;2023-04-30T07:19:29;8.60;99.90
4749;DHT22;2388;53.582;9.962;2023-04-30T07:21:54;8.60;99.90
4749;DHT22;2388;53.582;9.962;2023-04-30T07:24:20;8.60;99.90
4749;DHT22;2388;53.582;9.962;2023-04-30T07:26:45;8.60;99.90
4749;DHT22;2388;53.582;9.962;2023-04-30T07:29:11;8.60;99.90
4749;DHT22;2388;53.582;9.962;2023-04-30T07:31:36;8.60;99.90
4749;DHT22;2388;53.582;9.962;2023-04-30T07:34:02;8.80;99.90
4749;DHT22;2388;53.582;9.962;2023-04-30T07:36:27;8.80;99.90
4749;DHT22;2388;53.582;9.962;2023-04-30T07:38:53;8.80;99.90
4749;DHT22;2388;53.582;9.962;2023-04-30T07:41:18;8.90;99.90
4749;DHT22;2388;53.582;9.962;2023-04-30T07:43:44;9.00;99.90
4749;DHT22;2388;53.582;9.962;2023-04-30T07:46:10;9.00;99.90
4749;DHT22;2388;53.582;9.962;2023-04-30T07:48:35;9.00;99.90
4749;DHT22;2388;53.582;9.962;2023-04-30T07:51:02;9.00;99.90
4749;DHT22;2388;53.582;9.962;2023-04-30T07:53:29;9.10;99.90
4749;DHT22;2388;53.582;9.962;2023-04-30T07:55:54;9.10;99.90
4749;DHT22;2388;53.582;9.962;2023-04-30T07:58:20;9.20;99.90
4749;DHT22;2388;53.582;9.962;2023-04-30T08:00:45;9.20;99.90
4749;DHT22;2388;53.582;9.962;2023-04-30T08:03:11;9.10;99.90
4749;DHT22;2388;53.582;9.962;2023-04-30T08:05:36;9.30;99.90
4749;DHT22;2388;53.582;9.962;2023-04-30T08:08:02;9.30;99.90
4749;DHT22;2388;53.582;9.962;2023-04-30T08:10:27;9.40;99.90
4749;DHT22;2388;53.582;9.962;2023-04-30T08:12:53;9.50;99.90
4749;DHT22;2388;53.582;9.962;2023-04-30T08:15:19;9.40;99.90
4749;DHT22;2388;53.582;9.962;2023-04-30T08:17:50;9.40;99.90
4749;DHT22;2388;53.582;9.962;2023-04-30T08:20:16;9.50;99.90
4749;DHT22;2388;53.582;9.962;2023-04-30T08:22:45;9.50;99.90
4749;DHT22;2388;53.582;9.962;2023-04-30T08:25:11;9.50;99.90
4749;DHT22;2388;53.582;9.962;2023-04-30T08:27:37;9.50;99.90
4749;DHT22;2388;53.582;9.962;2023-04-30T08:30:03;9.50;99.90
4749;DHT22;2388;53.582;9.962;2023-04-30T08:32:28;9.60;99.90
4749;DHT22;2388;53.582;9.962;2023-04-30T08:34:54;9.60;99.90
4749;DHT22;2388;53.582;9.962;2023-04-30T08:37:20;9.70;99.90
4749;DHT22;2388;53.582;9.962;2023-04-30T08:39:46;9.60;99.90
4749;DHT22;2388;53.582;9.962;2023-04-30T08:42:13;9.70;99.90
4749;DHT22;2388;53.582;9.962;2023-04-30T08:44:40;9.80;99.90
4749;DHT22;2388;53.582;9.962;2023-04-30T08:47:10;9.90;99.90
4749;DHT22;2388;53.582;9.962;2023-04-30T08:49:39;9.90;99.90
4749;DHT22;2388;53.582;9.962;2023-04-30T08:52:04;9.80;99.90
4749;DHT22;2388;53.582;9.962;2023-04-30T08:54:30;9.80;99.90
4749;DHT22;2388;53.582;9.962;2023-04-30T08:56:59;9.80;99.90
4749;DHT22;2388;53.582;9.962;2023-04-30T08:59:24;9.80;99.90
4749;DHT22;2388;53.582;9.962;2023-04-30T09:01:50;9.90;99.90
4749;DHT22;2388;53.582;9.962;2023-04-30T09:04:15;10.00;99.90
4749;DHT22;2388;53.582;9.962;2023-04-30T09:06:42;9.90;99.90
4749;DHT22;2388;53.582;9.962;2023-04-30T09:09:10;9.90;99.90
4749;DHT22;2388;53.582;9.962;2023-04-30T09:11:36;10.00;99.90
4749;DHT22;2388;53.582;9.962;2023-04-30T09:14:01;9.80;99.90
4749;DHT22;2388;53.582;9.962;2023-04-30T09:16:29;9.90;99.90
4749;DHT22;2388;53.582;9.962;2023-04-30T09:18:57;9.80;99.90
4749;DHT22;2388;53.582;9.962;2023-04-30T09:21:34;9.80;99.90
4749;DHT22;2388;53.582;9.962;2023-04-30T09:24:02;9.80;99.90
4749;DHT22;2388;53.582;9.962;2023-04-30T09:26:33;9.80;99.90
4749;DHT22;2388;53.582;9.962;2023-04-30T09:28:59;9.90;99.90
4749;DHT22;2388;53.582;9.962;2023-04-30T09:31:25;9.90;99.90
4749;DHT22;2388;53.582;9.962;2023-04-30T09:33:52;10.00;99.90
4749;DHT22;2388;53.582;9.962;2023-04-30T09:36:19;10.00;99.90
4749;DHT22;2388;53.582;9.962;2023-04-30T09:38:44;10.00;99.90
4749;DHT22;2388;53.582;9.962;2023-04-30T09:41:27;10.00;99.90
4749;DHT22;2388;53.582;9.962;2023-04-30T09:43:56;10.10;99.90
4749;DHT22;2388;53.582;9.962;2023-04-30T09:46:33;10.10;99.90
4749;DHT22;2388;53.582;9.962;2023-04-30T09:49:01;10.10;99.90
4749;DHT22;2388;53.582;9.962;2023-04-30T09:51:27;10.10;99.90
4749;DHT22;2388;53.582;9.962;2023-04-30T09:53:53;10.20;99.90
4749;DHT22;2388;53.582;9.962;2023-04-30T09:56:22;10.30;99.90
4749;DHT22;2388;53.582;9.962;2023-04-30T09:58:55;10.30;99.90
4749;DHT22;2388;53.582;9.962;2023-04-30T10:01:25;10.40;99.90
4749;DHT22;2388;53.582;9.962;2023-04-30T10:03:51;10.50;99.90
4749;DHT22;2388;53.582;9.962;2023-04-30T10:06:17;10.50;99.90
4749;DHT22;2388;53.582;9.962;2023-04-30T10:08:47;10.50;99.90
4749;DHT22;2388;53.582;9.962;2023-04-30T10:11:17;10.60;99.90
4749;DHT22;2388;53.582;9.962;2023-04-30T10:14:02;10.60;99.90
4749;DHT22;2388;53.582;9.962;2023-04-30T10:19:17;10.60;99.90
4749;DHT22;2388;53.582;9.962;2023-04-30T10:21:45;10.70;99.90
4749;DHT22;2388;53.582;9.962;2023-04-30T10:24:13;10.80;99.90
4749;DHT22;2388;53.582;9.962;2023-04-30T10:26:39;10.70;99.90
4749;DHT22;2388;53.582;9.962;2023-04-30T10:29:06;10.70;99.90
4749;DHT22;2388;53.582;9.962;2023-04-30T10:31:32;10.70;99.90
4749;DHT22;2388;53.582;9.962;2023-04-30T10:34:21;10.70;99.90
4749;DHT22;2388;53.582;9.962;2023-04-30T10:36:55;10.80;99.90
4749;DHT22;2388;53.582;9.962;2023-04-30T10:39:21;10.90;99.90
4749;DHT22;2388;53.582;9.962;2023-04-30T10:41:47;11.00;99.90
4749;DHT22;2388;53.582;9.962;2023-04-30T10:44:14;11.00;99.90
4749;DHT22;2388;53.582;9.962;2023-04-30T10:46:40;11.00;99.90
4749;DHT22;2388;53.582;9.962;2023-04-30T10:49:06;11.00;99.90
4749;DHT22;2388;53.582;9.962;2023-04-30T10:51:46;11.10;99.90
4749;DHT22;2388;53.582;9.962;2023-04-30T10:54:15;11.30;99.90
4749;DHT22;2388;53.582;9.962;2023-04-30T10:56:43;11.40;99.90
4749;DHT22;2388;53.582;9.962;2023-04-30T10:59:10;11.60;99.90
4749;DHT22;2388;53.582;9.962;2023-04-30T11:01:56;11.60;99.90
4749;DHT22;2388;53.582;9.962;2023-04-30T11:04:22;11.70;99.90
4749;DHT22;2388;53.582;9.962;2023-04-30T11:09:16;11.80;99.90
4749;DHT22;2388;53.582;9.962;2023-04-30T11:11:45;11.80;99.90
4749;DHT22;2388;53.582;9.962;2023-04-30T11:14:15;11.90;99.90
4749;DHT22;2388;53.582;9.962;2023-04-30T11:16:48;12.00;99.90
4749;DHT22;2388;53.582;9.962;2023-04-30T11:19:14;12.00;99.90
4749;DHT22;2388;53.582;9.962;2023-04-30T11:24:49;12.10;99.90
4749;DHT22;2388;53.582;9.962;2023-04-30T11:27:28;12.10;99.90
4749;DHT22;2388;53.582;9.962;2023-04-30T11:29:55;12.20;99.90
4749;DHT22;2388;53.582;9.962;2023-04-30T11:32:23;12.30;99.90
4749;DHT22;2388;53.582;9.962;2023-04-30T11:34:48;12.50;99.90
4749;DHT22;2388;53.582;9.962;2023-04-30T11:40:07;12.80;99.90
4749;DHT22;2388;53.582;9.962;2023-04-30T11:42:36;12.90;99.90
4749;DHT22;2388;53.582;9.962;2023-04-30T11:45:05;12.90;99.90
4749;DHT22;2388;53.582;9.962;2023-04-30T11:47:41;13.00;99.90
4749;DHT22;2388;53.582;9.962;2023-04-30T11:50:12;13.00;99.90
4749;DHT22;2388;53.582;9.962;2023-04-30T11:52:40;13.10;99.90
4749;DHT22;2388;53.582;9.962;2023-04-30T11:55:17;13.00;99.90
4749;DHT22;2388;53.582;9.962;2023-04-30T11:57:44;13.00;99.90
4749;DHT22;2388;53.582;9.962;2023-04-30T12:00:12;13.10;99.90
4749;DHT22;2388;53.582;9.962;2023-04-30T12:02:39;13.20;99.90
4749;DHT22;2388;53.582;9.962;2023-04-30T12:05:11;13.10;99.90
4749;DHT22;2388;53.582;9.962;2023-04-30T12:07:38;13.30;99.90
4749;DHT22;2388;53.582;9.962;2023-04-30T12:10:04;13.50;99.90
4749;DHT22;2388;53.582;9.962;2023-04-30T12:12:31;13.70;99.90
4749;DHT22;2388;53.582;9.962;2023-04-30T12:14:56;13.90;99.90
4749;DHT22;2388;53.582;9.962;2023-04-30T12:17:32;14.20;99.90
4749;DHT22;2388;53.582;9.962;2023-04-30T12:19:58;14.50;99.90
4749;DHT22;2388;53.582;9.962;2023-04-30T12:22:24;14.80;99.90
4749;DHT22;2388;53.582;9.962;2023-04-30T12:24:49;14.80;99.90
4749;DHT22;2388;53.582;9.962;2023-04-30T12:27:16;15.10;99.90
4749;DHT22;2388;53.582;9.962;2023-04-30T12:29:45;15.20;99.90
4749;DHT22;2388;53.582;9.962;2023-04-30T12:32:13;15.40;99.90
4749;DHT22;2388;53.582;9.962;2023-04-30T12:34:42;15.60;99.90
4749;DHT22;2388;53.582;9.962;2023-04-30T12:37:08;15.70;99.90
4749;DHT22;2388;53.582;9.962;2023-04-30T12:39:34;15.90;99.90
4749;DHT22;2388;53.582;9.962;2023-04-30T12:42:00;16.10;99.90
4749;DHT22;2388;53.582;9.962;2023-04-30T12:44:26;16.20;99.90
4749;DHT22;2388;53.582;9.962;2023-04-30T12:46:54;16.30;99.90
4749;DHT22;2388;53.582;9.962;2023-04-30T12:49:26;16.40;99.90
4749;DHT22;2388;53.582;9.962;2023-04-30T12:51:59;16.40;99.90
4749;DHT22;2388;53.582;9.962;2023-04-30T12:54:30;16.50;99.90
4749;DHT22;2388;53.582;9.962;2023-04-30T12:57:01;16.60;99.90
4749;DHT22;2388;53.582;9.962;2023-04-30T12:59:28;16.80;99.90
4749;DHT22;2388;53.582;9.962;2023-04-30T13:01:54;16.80;99.90
4749;DHT22;2388;53.582;9.962;2023-04-30T13:04:20;17.00;99.90
4749;DHT22;2388;53.582;9.962;2023-04-30T13:06:46;17.10;99.90
4749;DHT22;2388;53.582;9.962;2023-04-30T13:09:11;17.20;99.90
4749;DHT22;2388;53.582;9.962;2023-04-30T13:11:37;17.20;99.90
4749;DHT22;2388;53.582;9.962;2023-04-30T13:14:03;17.20;99.90
4749;DHT22;2388;53.582;9.962;2023-04-30T13:16:29;17.20;99.90
4749;DHT22;2388;53.582;9.962;2023-04-30T13:18:55;17.30;99.90
4749;DHT22;2388;53.582;9.962;2023-04-30T13:21:21;17.30;99.90
4749;DHT22;2388;53.582;9.962;2023-04-30T13:23:46;17.40;99.90
4749;DHT22;2388;53.582;9.962;2023-04-30T13:26:12;17.60;99.90
4749;DHT22;2388;53.582;9.962;2023-04-30T13:28:37;17.60;99.90
4749;DHT22;2388;53.582;9.962;2023-04-30T13:31:03;17.70;99.90
4749;DHT22;2388;53.582;9.962;2023-04-30T13:33:28;17.80;99.90
4749;DHT22;2388;53.582;9.962;2023-04-30T13:35:54;17.90;99.90
4749;DHT22;2388;53.582;9.962;2023-04-30T13:38:19;18.10;99.90
4749;DHT22;2388;53.582;9.962;2023-04-30T13:40:44;17.90;99.90
4749;DHT22;2388;53.582;9.962;2023-04-30T13:43:10;17.80;99.90
4749;DHT22;2388;53.582;9.962;2023-04-30T13:45:35;17.60;99.90
4749;DHT22;2388;53.582;9.962;2023-04-30T13:48:01;17.50;99.90
4749;DHT22;2388;53.582;9.962;2023-04-30T13:50:27;17.20;99.90
4749;DHT22;2388;53.582;9.962;2023-04-30T13:52:53;17.10;99.90
4749;DHT22;2388;53.582;9.962;2023-04-30T13:55:18;17.10;99.90
4749;DHT22;2388;53.582;9.962;2023-04-30T13:57:44;17.10;99.90
4749;DHT22;2388;53.582;9.962;2023-04-30T14:00:09;17.30;99.90
4749;DHT22;2388;53.582;9.962;2023-04-30T14:02:35;17.40;99.90
4749;DHT22;2388;53.582;9.962;2023-04-30T14:05:02;17.40;99.90
4749;DHT22;2388;53.582;9.962;2023-04-30T14:07:29;17.30;99.90
4749;DHT22;2388;53.582;9.962;2023-04-30T14:09:54;17.20;99.90
4749;DHT22;2388;53.582;9.962;2023-04-30T14:12:20;17.30;99.90
4749;DHT22;2388;53.582;9.962;2023-04-30T14:14:46;17.20;99.90
4749;DHT22;2388;53.582;9.962;2023-04-30T14:17:12;17.30;99.90
4749;DHT22;2388;53.582;9.962;2023-04-30T14:19:37;17.10;99.90
4749;DHT22;2388;53.582;9.962;2023-04-30T14:22:03;17.00;99.90
4749;DHT22;2388;53.582;9.962;2023-04-30T14:24:29;16.90;99.90
4749;DHT22;2388;53.582;9.962;2023-04-30T14:26:55;16.80;99.90
4749;DHT22;2388;53.582;9.962;2023-04-30T14:29:20;17.00;99.90
4749;DHT22;2388;53.582;9.962;2023-04-30T14:31:46;17.10;99.90
4749;DHT22;2388;53.582;9.962;2023-04-30T14:34:11;17.20;99.90
4749;DHT22;2388;53.582;9.962;2023-04-30T14:36:37;17.10;99.90
4749;DHT22;2388;53.582;9.962;2023-04-30T14:39:03;17.10;99.90
4749;DHT22;2388;53.582;9.962;2023-04-30T14:41:36;17.20;99.90
4749;DHT22;2388;53.582;9.962;2023-04-30T14:44:02;17.20;99.90
4749;DHT22;2388;53.582;9.962;2023-04-30T14:46:29;17.20;99.90
4749;DHT22;2388;53.582;9.962;2023-04-30T14:48:55;16.90;99.90
4749;DHT22;2388;53.582;9.962;2023-04-30T14:51:20;16.70;99.90
4749;DHT22;2388;53.582;9.962;2023-04-30T14:53:46;16.70;99.90
4749;DHT22;2388;53.582;9.962;2023-04-30T14:56:11;16.90;99.90
4749;DHT22;2388;53.582;9.962;2023-04-30T14:58:37;17.00;99.90
4749;DHT22;2388;53.582;9.962;2023-04-30T15:01:02;17.00;99.90
4749;DHT22;2388;53.582;9.962;2023-04-30T15:03:28;16.90;99.90
4749;DHT22;2388;53.582;9.962;2023-04-30T15:05:55;16.80;99.90
4749;DHT22;2388;53.582;9.962;2023-04-30T15:08:20;16.80;99.90
4749;DHT22;2388;53.582;9.962;2023-04-30T15:10:46;16.80;99.90
4749;DHT22;2388;53.582;9.962;2023-04-30T15:13:11;16.90;99.90
4749;DHT22;2388;53.582;9.962;2023-04-30T15:15:38;17.00;99.90
4749;DHT22;2388;53.582;9.962;2023-04-30T15:18:04;17.10;99.90
4749;DHT22;2388;53.582;9.962;2023-04-30T15:20:30;17.20;99.90
4749;DHT22;2388;53.582;9.962;2023-04-30T15:22:56;17.40;99.90
4749;DHT22;2388;53.582;9.962;2023-04-30T15:25:21;17.40;99.90
4749;DHT22;2388;53.582;9.962;2023-04-30T15:27:51;17.20;99.90
4749;DHT22;2388;53.582;9.962;2023-04-30T15:30:17;17.00;99.90
4749;DHT22;2388;53.582;9.962;2023-04-30T15:32:42;17.00;99.90
4749;DHT22;2388;53.582;9.962;2023-04-30T15:35:08;17.00;99.90
4749;DHT22;2388;53.582;9.962;2023-04-30T15:37:35;17.00;99.90
4749;DHT22;2388;53.582;9.962;2023-04-30T15:40:00;17.00;99.90
4749;DHT22;2388;53.582;9.962;2023-04-30T15:42:26;17.10;99.90
4749;DHT22;2388;53.582;9.962;2023-04-30T15:44:51;17.10;99.90
4749;DHT22;2388;53.582;9.962;2023-04-30T15:47:17;17.10;99.90
4749;DHT22;2388;53.582;9.962;2023-04-30T15:49:43;17.00;99.90
4749;DHT22;2388;53.582;9.962;2023-04-30T15:52:08;16.90;99.90
4749;DHT22;2388;53.582;9.962;2023-04-30T15:54:34;16.80;99.90
4749;DHT22;2388;53.582;9.962;2023-04-30T15:57:00;16.60;99.90
4749;DHT22;2388;53.582;9.962;2023-04-30T15:59:27;16.40;99.90
4749;DHT22;2388;53.582;9.962;2023-04-30T16:01:52;16.40;99.90
4749;DHT22;2388;53.582;9.962;2023-04-30T16:04:18;16.20;99.90
4749;DHT22;2388;53.582;9.962;2023-04-30T16:06:43;16.10;99.90
4749;DHT22;2388;53.582;9.962;2023-04-30T16:09:09;15.90;99.90
4749;DHT22;2388;53.582;9.962;2023-04-30T16:11:36;15.90;99.90
4749;DHT22;2388;53.582;9.962;2023-04-30T16:14:02;15.80;99.90
4749;DHT22;2388;53.582;9.962;2023-04-30T16:16:27;15.80;99.90
4749;DHT22;2388;53.582;9.962;2023-04-30T16:18:53;15.70;99.90
4749;DHT22;2388;53.582;9.962;2023-04-30T16:21:19;15.70;99.90
4749;DHT22;2388;53.582;9.962;2023-04-30T16:23:45;15.60;99.90
4749;DHT22;2388;53.582;9.962;2023-04-30T16:26:12;15.60;99.90
4749;DHT22;2388;53.582;9.962;2023-04-30T16:28:37;15.50;99.90
4749;DHT22;2388;53.582;9.962;2023-04-30T16:31:03;15.40;99.90